Time;durP1;ratioP1;P1;durP2;ratioP2;P2;SDS_P1;SDS_P2;PMS_P1;PMS_P2;Temp;Humidity;BMP_temperature;BMP_pressure;BME280_temperature;BME280_humidity;BME280_pressure;Samples;Min_cycle;Max_cycle;Signal;HPM_P1;HPM_P2
2021/10/15 00:02:24;;;;;;;0.30;0.20;;;;;;;5.82;100.00;100681.66;5059202;28;20462;-53
2021/10/15 00:04:51;;;;;;;0.30;0.20;;;;;;;5.93;100.00;100679.91;5065197;28;20487;-52
2021/10/15 00:07:18;;;;;;;0.30;0.20;;;;;;;6.10;100.00;100674.56;5065104;28;20970;-52
2021/10/15 00:09:45;;;;;;;0.30;0.20;;;;;;;6.02;100.00;100676.34;5058526;28;20802;-52
2021/10/15 00:12:13;;;;;;;0.30;0.20;;;;;;;5.94;100.00;100686.94;5058615;28;20800;-54
2021/10/15 00:14:40;;;;;;;0.40;0.40;;;;;;;5.99;100.00;100687.78;5065702;28;20450;-52
2021/10/15 00:17:07;;;;;;;0.30;0.20;;;;;;;5.79;100.00;100684.31;5069185;28;20488;-52
2021/10/15 00:19:34;;;;;;;0.30;0.20;;;;;;;5.80;100.00;100689.59;5063581;28;20499;-52
2021/10/15 00:22:01;;;;;;;0.30;0.20;;;;;;;5.73;100.00;100687.84;5062657;28;20446;-52
2021/10/15 00:24:28;;;;;;;0.30;0.20;;;;;;;5.78;100.00;100680.81;5067966;28;20477;-52
2021/10/15 00:26:55;;;;;;;0.30;0.20;;;;;;;5.71;100.00;100675.53;5069260;28;20531;-52
2021/10/15 00:29:21;;;;;;;0.30;0.20;;;;;;;5.72;100.00;100682.56;5063873;28;20982;-52
2021/10/15 00:31:48;;;;;;;0.30;0.20;;;;;;;5.72;100.00;100672.91;5062065;28;20502;-52
2021/10/15 00:34:15;;;;;;;0.30;0.20;;;;;;;5.77;100.00;100671.16;5067466;28;20451;-52
2021/10/15 00:36:42;;;;;;;0.30;0.20;;;;;;;5.79;100.00;100666.75;5069012;28;20450;-52
2021/10/15 00:39:09;;;;;;;0.30;0.20;;;;;;;5.62;100.00;100655.38;5062618;28;20480;-52
2021/10/15 00:41:37;;;;;;;0.30;0.20;;;;;;;5.59;100.00;100664.13;5061876;28;20509;-52
2021/10/15 00:44:11;;;;;;;0.30;0.20;;;;;;;5.67;100.00;100658.84;5066937;28;20489;-52
2021/10/15 00:46:41;;;;;;;0.43;0.40;;;;;;;5.66;100.00;100651.84;5068821;28;20494;-52
2021/10/15 00:49:11;;;;;;;1.07;1.07;;;;;;;5.88;100.00;100649.97;5052717;28;20451;-52
2021/10/15 00:51:42;;;;;;;0.30;0.20;;;;;;;5.81;100.00;100648.25;5059700;28;21040;-52
2021/10/15 00:54:11;;;;;;;0.40;0.30;;;;;;;5.81;100.00;100640.34;5063447;28;20947;-52
2021/10/15 00:56:39;;;;;;;0.30;0.20;;;;;;;5.58;100.00;100633.38;5072967;28;20488;-52
2021/10/15 00:59:06;;;;;;;0.30;0.20;;;;;;;5.51;100.00;100631.66;5063356;28;20475;-52
2021/10/15 01:01:32;;;;;;;0.30;0.20;;;;;;;5.62;100.00;100632.50;5068566;28;20466;-52
2021/10/15 01:04:03;;;;;;;0.30;0.20;;;;;;;5.60;100.00;100623.69;5067781;28;20446;-52
2021/10/15 01:06:32;;;;;;;0.30;0.20;;;;;;;5.60;100.00;100623.69;5068214;28;20852;-52
2021/10/15 01:09:00;;;;;;;0.30;0.20;;;;;;;5.45;100.00;100621.09;5068652;28;20488;-52
2021/10/15 01:11:27;;;;;;;0.40;0.37;;;;;;;5.37;100.00;100622.91;5062569;28;20888;-52
2021/10/15 01:13:55;;;;;;;0.30;0.20;;;;;;;5.31;100.00;100621.13;5061532;28;20461;-53
2021/10/15 01:16:28;;;;;;;1.33;0.77;;;;;;;5.43;100.00;100616.72;5067744;28;20470;-52
2021/10/15 01:18:57;;;;;;;0.30;0.20;;;;;;;5.41;100.00;100619.38;5061455;28;20456;-52
2021/10/15 01:21:25;;;;;;;0.30;0.20;;;;;;;5.50;100.00;100624.63;5064753;28;20505;-55
2021/10/15 01:23:53;;;;;;;0.30;0.20;;;;;;;5.72;100.00;100614.00;5061609;28;20497;-55
2021/10/15 01:26:20;;;;;;;0.30;0.20;;;;;;;5.59;100.00;100607.88;5065146;28;20540;-55
2021/10/15 01:28:48;;;;;;;0.30;0.20;;;;;;;5.59;100.00;100614.03;5068240;28;20493;-55
2021/10/15 01:31:15;;;;;;;0.30;0.20;;;;;;;5.54;100.00;100607.03;5064504;28;20516;-55
2021/10/15 01:33:42;;;;;;;0.30;0.30;;;;;;;5.41;100.00;100606.19;5061325;28;20450;-55
2021/10/15 01:36:09;;;;;;;0.30;0.20;;;;;;;5.36;100.00;100602.69;5064270;28;20519;-55
2021/10/15 01:38:36;;;;;;;0.53;0.53;;;;;;;5.46;100.00;100601.78;5067654;28;20501;-55
2021/10/15 01:41:03;;;;;;;0.30;0.20;;;;;;;5.32;100.00;100587.75;5064739;28;20560;-54
2021/10/15 01:43:31;;;;;;;0.30;0.20;;;;;;;5.19;100.00;100589.53;5060898;28;20488;-54
2021/10/15 01:45:58;;;;;;;0.30;0.20;;;;;;;5.22;100.00;100591.31;5063366;28;20891;-55
2021/10/15 01:48:25;;;;;;;0.30;0.20;;;;;;;5.28;100.00;100581.63;5067308;28;20450;-54
2021/10/15 01:50:53;;;;;;;0.30;0.20;;;;;;;5.17;100.00;100577.25;5054123;28;20475;-54
2021/10/15 01:53:20;;;;;;;0.30;0.20;;;;;;;5.18;100.00;100579.00;5067424;28;20486;-54
2021/10/15 01:55:47;;;;;;;0.30;0.20;;;;;;;5.16;100.00;100573.75;5066036;28;20453;-54
2021/10/15 01:58:17;;;;;;;2.67;1.13;;;;;;;5.20;100.00;100574.59;5068131;28;20881;-54
2021/10/15 02:00:45;;;;;;;0.30;0.20;;;;;;;5.45;100.00;100562.25;5066576;28;20493;-54
2021/10/15 02:03:13;;;;;;;0.30;0.20;;;;;;;5.31;100.00;100559.66;5060461;28;20449;-54
2021/10/15 02:05:40;;;;;;;0.30;0.20;;;;;;;5.41;100.00;100558.75;5061106;28;20913;-55
2021/10/15 02:08:12;;;;;;;0.30;0.20;;;;;;;5.32;100.00;100553.50;5060851;28;20446;-55
2021/10/15 02:10:39;;;;;;;0.30;0.20;;;;;;;5.23;100.00;100564.97;5060034;28;20996;-54
2021/10/15 02:13:06;;;;;;;0.30;0.20;;;;;;;5.31;100.00;100557.88;5066855;28;20455;-54
2021/10/15 02:15:33;;;;;;;0.30;0.20;;;;;;;5.04;100.00;100553.56;5067326;28;20935;-54
2021/10/15 02:18:00;;;;;;;0.30;0.20;;;;;;;5.26;100.00;100561.44;5060851;28;20446;-54
2021/10/15 02:20:27;;;;;;;0.30;0.20;;;;;;;5.01;100.00;100557.97;5050309;28;20466;-54
2021/10/15 02:22:54;;;;;;;0.30;0.20;;;;;;;4.98;100.00;100550.06;5051834;28;20450;-54
2021/10/15 02:25:23;;;;;;;0.30;0.20;;;;;;;4.98;100.00;100545.69;5066819;28;20481;-54
2021/10/15 02:27:51;;;;;;;0.30;0.20;;;;;;;5.08;100.00;100548.31;5061815;28;20454;-54
2021/10/15 02:30:18;;;;;;;2.37;1.43;;;;;;;4.98;100.00;100543.03;5059869;28;20478;-54
2021/10/15 02:32:46;;;;;;;0.30;0.23;;;;;;;4.95;100.00;100540.44;5064515;28;20462;-54
2021/10/15 02:35:14;;;;;;;0.30;0.20;;;;;;;5.06;100.00;100548.28;5066749;28;20450;-54
2021/10/15 02:37:42;;;;;;;0.30;0.20;;;;;;;5.13;100.00;100541.25;5062076;28;20446;-54
2021/10/15 02:40:10;;;;;;;0.30;0.20;;;;;;;4.95;100.00;100543.06;5060093;28;20465;-54
2021/10/15 02:42:37;;;;;;;0.30;0.20;;;;;;;4.98;100.00;100545.69;5063700;28;20871;-54
2021/10/15 02:45:05;;;;;;;0.30;0.20;;;;;;;4.97;100.00;100543.06;5066510;28;20451;-54
2021/10/15 02:47:32;;;;;;;0.30;0.20;;;;;;;4.78;100.00;100539.56;5063335;28;20542;-55
2021/10/15 02:49:59;;;;;;;0.30;0.20;;;;;;;4.75;100.00;100542.19;5055994;28;20509;-54
2021/10/15 02:52:26;;;;;;;0.30;0.20;;;;;;;4.66;100.00;100543.09;5064137;28;20441;-54
2021/10/15 02:54:53;;;;;;;0.30;0.20;;;;;;;4.57;100.00;100542.22;5059452;28;20477;-54
2021/10/15 02:57:20;;;;;;;0.30;0.20;;;;;;;4.62;100.00;100541.31;5072000;28;20445;-55
2021/10/15 02:59:46;;;;;;;0.30;0.20;;;;;;;4.63;100.00;100535.19;5059178;28;20481;-54
2021/10/15 03:02:13;;;;;;;0.30;0.20;;;;;;;4.58;100.00;100536.06;5061767;28;20447;-54
2021/10/15 03:04:41;;;;;;;0.30;0.20;;;;;;;4.59;100.00;100538.69;5065975;28;20508;-54
2021/10/15 03:07:08;;;;;;;0.40;0.30;;;;;;;4.66;100.00;100536.94;5064468;28;20536;-54
2021/10/15 03:09:35;;;;;;;0.30;0.20;;;;;;;4.53;100.00;100533.44;5058890;28;20593;-54
2021/10/15 03:12:02;;;;;;;0.30;0.20;;;;;;;4.46;100.00;100529.94;5060774;28;20474;-55
2021/10/15 03:14:29;;;;;;;0.30;0.20;;;;;;;4.53;100.00;100536.09;5065929;28;20865;-54
2021/10/15 03:16:56;;;;;;;0.30;0.20;;;;;;;4.61;100.00;100526.41;5064504;28;20500;-54
2021/10/15 03:19:22;;;;;;;0.30;0.20;;;;;;;4.45;100.00;100532.56;5059104;28;20511;-54
2021/10/15 03:21:49;;;;;;;0.50;0.50;;;;;;;4.30;100.00;100528.16;5060332;28;20466;-54
2021/10/15 03:24:16;;;;;;;0.30;0.20;;;;;;;4.41;100.00;100517.66;5065911;28;20959;-54
2021/10/15 03:26:43;;;;;;;0.30;0.20;;;;;;;4.32;100.00;100520.28;5064623;28;20528;-54
2021/10/15 03:29:10;;;;;;;0.30;0.20;;;;;;;4.39;100.00;100520.28;5059604;28;20863;-54
2021/10/15 03:31:37;;;;;;;0.30;0.20;;;;;;;4.33;100.00;100520.28;5059993;28;20470;-54
2021/10/15 03:34:04;;;;;;;0.30;0.20;;;;;;;4.41;100.00;100512.41;5065386;28;20487;-54
2021/10/15 03:36:31;;;;;;;0.30;0.20;;;;;;;4.48;100.00;100519.41;5065395;28;20445;-54
2021/10/15 03:38:58;;;;;;;1.20;1.20;;;;;;;4.51;100.00;100519.38;5058588;28;20481;-54
2021/10/15 03:41:24;;;;;;;0.30;0.20;;;;;;;4.56;100.00;100522.03;5058905;28;21007;-54
2021/10/15 03:43:51;;;;;;;0.53;0.53;;;;;;;4.69;100.00;100508.88;5065695;28;20490;-54
2021/10/15 03:46:18;;;;;;;0.30;0.20;;;;;;;4.55;100.00;100517.66;5065504;28;20514;-54
2021/10/15 03:48:45;;;;;;;0.30;0.20;;;;;;;4.43;100.00;100513.25;5049853;28;20984;-54
2021/10/15 03:51:12;;;;;;;0.30;0.20;;;;;;;4.39;100.00;100511.53;5052423;28;20505;-54
2021/10/15 03:53:39;;;;;;;0.30;0.20;;;;;;;4.42;100.00;100517.66;5063260;28;20494;-54
2021/10/15 03:56:06;;;;;;;0.30;0.20;;;;;;;4.37;100.00;100507.97;5066033;28;20500;-54
2021/10/15 03:58:36;;;;;;;0.30;0.20;;;;;;;4.31;100.00;100508.00;5063936;28;20446;-54
2021/10/15 04:01:02;;;;;;;0.30;0.20;;;;;;;4.27;100.00;100508.88;5065540;28;20826;-54
2021/10/15 04:03:29;;;;;;;0.30;0.20;;;;;;;4.29;100.00;100509.75;5060852;28;20446;-55
2021/10/15 04:05:57;;;;;;;0.30;0.20;;;;;;;4.35;100.00;100510.63;5058588;28;20482;-54
2021/10/15 04:08:24;;;;;;;0.30;0.20;;;;;;;4.52;100.00;100504.47;5063405;28;20450;-54
2021/10/15 04:10:51;;;;;;;0.30;0.20;;;;;;;4.50;100.00;100508.84;5065635;28;20470;-54
2021/10/15 04:13:18;;;;;;;0.30;0.20;;;;;;;4.30;100.00;100499.22;5061185;28;20489;-53
2021/10/15 04:15:45;;;;;;;0.30;0.20;;;;;;;4.57;100.00;100498.34;5058348;28;20968;-53
2021/10/15 04:18:12;;;;;;;0.30;0.20;;;;;;;4.43;100.00;100503.63;5062699;28;20447;-54
2021/10/15 04:20:40;;;;;;;0.30;0.20;;;;;;;4.41;100.00;100496.59;5061273;28;20540;-54
2021/10/15 04:23:07;;;;;;;0.30;0.20;;;;;;;4.34;100.00;100495.72;5061667;28;20478;-55
2021/10/15 04:25:34;;;;;;;0.30;0.20;;;;;;;4.42;100.00;100487.81;5058252;28;20470;-55
2021/10/15 04:28:01;;;;;;;0.30;0.20;;;;;;;4.56;100.00;100488.69;5061704;28;20530;-54
2021/10/15 04:30:27;;;;;;;0.30;0.20;;;;;;;4.41;100.00;100488.72;5064820;28;20498;-54
2021/10/15 04:32:54;;;;;;;0.30;0.20;;;;;;;4.51;100.00;100476.41;5062085;28;20450;-54
2021/10/15 04:35:21;;;;;;;0.40;0.30;;;;;;;4.47;100.00;100484.31;5058278;28;20497;-54
2021/10/15 04:37:48;;;;;;;0.30;0.20;;;;;;;4.24;100.00;100483.41;5061350;28;20473;-55
2021/10/15 04:40:15;;;;;;;0.30;0.20;;;;;;;4.27;100.00;100479.94;5064754;28;21040;-55
2021/10/15 04:42:47;;;;;;;0.30;0.13;;;;;;;4.44;100.00;100484.31;5062925;28;20529;-55
2021/10/15 04:45:14;;;;;;;0.30;0.17;;;;;;;4.25;100.00;100487.84;5058238;28;20449;-55
2021/10/15 04:47:40;;;;;;;0.30;0.20;;;;;;;4.30;100.00;100480.81;5060115;28;20536;-55
2021/10/15 04:50:08;;;;;;;0.30;0.20;;;;;;;4.33;100.00;100472.91;5048514;28;20520;-55
2021/10/15 04:52:35;;;;;;;0.40;0.33;;;;;;;4.23;100.00;100475.53;5063833;28;20454;-55
2021/10/15 04:55:04;;;;;;;0.30;0.20;;;;;;;4.24;100.00;100467.63;5058109;28;20905;-55
2021/10/15 04:57:31;;;;;;;0.97;0.97;;;;;;;4.38;100.00;100463.25;5070959;28;20943;-55
2021/10/15 04:59:58;;;;;;;0.30;0.20;;;;;;;4.43;100.00;100464.13;5058129;28;20513;-55
2021/10/15 05:02:25;;;;;;;0.30;0.20;;;;;;;4.50;100.00;100467.63;5061012;28;20446;-54
2021/10/15 05:04:52;;;;;;;0.30;0.20;;;;;;;4.44;100.00;100458.00;5068026;28;20451;-55
2021/10/15 05:07:19;;;;;;;0.30;0.20;;;;;;;4.47;100.00;100462.38;5068338;28;20490;-55
2021/10/15 05:09:46;;;;;;;0.30;0.20;;;;;;;4.58;100.00;100457.97;5062280;28;20446;-55
2021/10/15 05:12:16;;;;;;;0.30;0.20;;;;;;;4.58;100.00;100452.72;5061537;28;20477;-55
2021/10/15 05:14:43;;;;;;;0.30;0.20;;;;;;;4.58;100.00;100454.47;5067022;28;20505;-55
2021/10/15 05:17:10;;;;;;;0.30;0.20;;;;;;;4.57;100.00;100458.84;5068209;28;20811;-55
2021/10/15 05:19:40;;;;;;;0.30;0.20;;;;;;;4.61;100.00;100446.56;5063272;28;20959;-55
2021/10/15 05:22:07;;;;;;;0.70;0.70;;;;;;;4.56;100.00;100446.56;5061292;28;20478;-55
2021/10/15 05:24:34;;;;;;;0.30;0.20;;;;;;;4.74;100.00;100445.66;5065324;28;20894;-55
2021/10/15 05:27:01;;;;;;;0.30;0.20;;;;;;;4.72;100.00;100452.69;5068028;28;21426;-55
2021/10/15 05:29:28;;;;;;;0.30;0.20;;;;;;;4.78;100.00;100443.88;5064543;28;20484;-55
2021/10/15 05:31:55;;;;;;;1.53;1.27;;;;;;;4.86;100.00;100453.53;5061155;28;20446;-55
2021/10/15 05:34:22;;;;;;;0.30;0.20;;;;;;;4.81;100.00;100442.16;5064656;28;20447;-55
2021/10/15 05:36:49;;;;;;;0.30;0.20;;;;;;;4.87;100.00;100442.09;5067835;28;20482;-55
2021/10/15 05:39:16;;;;;;;0.30;0.20;;;;;;;4.87;100.00;100443.88;5064896;28;20482;-55
2021/10/15 05:41:43;;;;;;;0.30;0.30;;;;;;;4.91;100.00;100442.97;5060579;28;20997;-55
2021/10/15 05:44:10;;;;;;;0.30;0.20;;;;;;;4.86;100.00;100444.75;5063767;28;20475;-55
2021/10/15 05:46:36;;;;;;;0.30;0.10;;;;;;;4.86;100.00;100440.34;5067470;28;20526;-55
2021/10/15 05:49:07;;;;;;;0.30;0.20;;;;;;;4.83;100.00;100444.78;5052851;28;20507;-55
2021/10/15 05:51:38;;;;;;;0.30;0.20;;;;;;;4.81;100.00;100442.16;5058813;28;20516;-55
2021/10/15 05:54:05;;;;;;;0.30;0.20;;;;;;;4.81;100.00;100451.78;5063449;28;20482;-55
2021/10/15 05:59:08;;;;;;;0.30;0.20;;;;;;;4.85;100.00;100449.13;5061549;28;20877;-56
2021/10/15 06:01:36;;;;;;;0.73;0.73;;;;;;;4.84;100.00;100447.38;5067605;28;21001;-56
2021/10/15 06:14:38;;;;;;;0.30;0.13;;;;;;;4.87;100.00;100438.59;5060337;28;20449;-55
2021/10/15 06:17:22;;;;;;;0.30;0.10;;;;;;;4.85;100.00;100443.88;5060256;28;20969;-55
2021/10/15 06:19:52;;;;;;;0.30;0.20;;;;;;;4.79;100.00;100443.88;5056698;28;20475;-55
2021/10/15 06:22:22;;;;;;;0.30;0.20;;;;;;;5.02;100.00;100447.31;5066801;28;20984;-56
2021/10/15 06:24:51;;;;;;;0.30;0.20;;;;;;;5.01;100.00;100444.69;5064075;28;20446;-55
2021/10/15 06:27:19;;;;;;;0.90;0.90;;;;;;;5.01;100.00;100448.22;5060241;28;20539;-56
2021/10/15 06:29:48;;;;;;;0.30;0.20;;;;;;;5.18;100.00;100450.78;5062313;28;20481;-55
2021/10/15 06:32:17;;;;;;;0.40;0.30;;;;;;;5.19;100.00;100452.53;5066549;28;20482;-56
2021/10/15 06:34:44;;;;;;;0.30;0.20;;;;;;;5.15;100.00;100448.16;5065697;28;20511;-56
2021/10/15 06:37:11;;;;;;;0.30;0.20;;;;;;;5.05;100.00;100447.31;5059654;28;20446;-56
2021/10/15 06:39:38;;;;;;;0.30;0.20;;;;;;;5.22;100.00;100443.75;5060863;28;20500;-56
2021/10/15 06:42:06;;;;;;;0.30;0.20;;;;;;;5.30;100.00;100449.84;5066857;28;20485;-55
2021/10/15 06:44:32;;;;;;;0.30;0.20;;;;;;;5.48;100.00;100447.13;5065748;28;20449;-55
2021/10/15 06:46:59;;;;;;;0.40;0.30;;;;;;;5.50;100.00;100445.38;5059540;28;20489;-55
2021/10/15 06:49:26;;;;;;;2.00;1.90;;;;;;;5.65;100.00;100444.41;5060348;28;20944;-55
2021/10/15 06:51:53;;;;;;;0.30;0.10;;;;;;;5.79;100.00;100441.66;5059207;28;20474;-56
2021/10/15 06:54:20;;;;;;;0.30;0.20;;;;;;;5.70;100.00;100441.72;5059574;28;20474;-56
2021/10/15 06:56:47;;;;;;;0.30;0.20;;;;;;;5.88;100.00;100445.09;5071557;28;20442;-56
2021/10/15 06:59:14;;;;;;;0.43;0.43;;;;;;;5.88;100.00;100445.09;5059307;28;20447;-55
2021/10/15 07:01:41;;;;;;;0.30;0.20;;;;;;;5.97;100.00;100452.13;5066215;28;20839;-55
2021/10/15 07:04:08;;;;;;;0.30;0.20;;;;;;;6.10;100.00;100452.91;5066189;28;20446;-56
2021/10/15 07:06:35;;;;;;;0.30;0.20;;;;;;;6.09;100.00;100454.66;5060099;28;20445;-56
2021/10/15 07:09:03;;;;;;;0.30;0.20;;;;;;;6.12;100.00;100443.22;5059226;28;20462;-56
2021/10/15 07:11:34;;;;;;;0.30;0.20;;;;;;;6.19;100.00;100450.19;5065312;28;20524;-56
2021/10/15 07:14:01;;;;;;;1.03;1.03;;;;;;;6.34;100.00;100455.34;5065958;28;20450;-56
2021/10/15 07:16:28;;;;;;;0.40;0.33;;;;;;;6.39;100.00;100456.16;5059754;28;20519;-54
2021/10/15 07:18:55;;;;;;;1.90;1.40;;;;;;;6.38;100.00;100448.25;5059169;28;20850;-57
2021/10/15 07:21:22;;;;;;;0.30;0.20;;;;;;;6.55;100.00;100448.97;5064703;28;20463;-54
2021/10/15 07:23:50;;;;;;;0.40;0.33;;;;;;;6.61;100.00;100446.28;5065630;28;20496;-54
2021/10/15 07:26:17;;;;;;;0.40;0.40;;;;;;;6.62;100.00;100450.69;5061394;28;20493;-52
2021/10/15 07:28:44;;;;;;;0.30;0.20;;;;;;;6.74;100.00;100441.75;5059096;28;20553;-52
2021/10/15 07:31:10;;;;;;;0.30;0.20;;;;;;;6.74;100.00;100442.63;5063269;28;20582;-53
2021/10/15 07:33:38;;;;;;;0.30;0.20;;;;;;;6.76;100.00;100455.81;5065910;28;20454;-52
2021/10/15 07:36:05;;;;;;;0.40;0.40;;;;;;;6.67;100.00;100454.13;5062017;28;20480;-53
2021/10/15 07:38:32;;;;;;;0.30;0.20;;;;;;;6.75;100.00;100436.47;5058773;28;20450;-52
2021/10/15 07:40:59;;;;;;;0.40;0.40;;;;;;;6.86;100.00;100449.56;5062364;28;20479;-52
2021/10/15 07:43:26;;;;;;;0.60;0.60;;;;;;;6.80;100.00;100454.91;5065731;28;20508;-53
2021/10/15 07:45:53;;;;;;;0.30;0.20;;;;;;;6.96;100.00;100455.59;5062745;28;20565;-52
2021/10/15 07:48:20;;;;;;;0.30;0.20;;;;;;;7.12;100.00;100462.44;5057119;28;20535;-52
2021/10/15 07:50:47;;;;;;;0.30;0.20;;;;;;;7.21;100.00;100461.47;5048536;28;20470;-52
2021/10/15 07:53:13;;;;;;;0.30;0.20;;;;;;;7.42;100.00;100464.75;5065521;28;20456;-53
2021/10/15 07:55:41;;;;;;;0.30;0.20;;;;;;;7.61;100.00;100469.78;5063156;28;20441;-53
2021/10/15 07:58:08;;;;;;;0.30;0.20;;;;;;;7.72;100.00;100455.50;5067231;28;20451;-52
2021/10/15 08:00:38;;;;;;;1.70;0.63;;;;;;;7.92;100.00;100462.25;5063232;28;20502;-52
2021/10/15 08:03:06;;;;;;;0.40;0.40;;;;;;;8.03;100.00;100463.84;5058687;28;20880;-52
2021/10/15 08:05:33;;;;;;;0.40;0.40;;;;;;;8.21;100.00;100456.50;5060587;28;20450;-53
2021/10/15 08:08:00;;;;;;;0.30;0.20;;;;;;;8.25;100.00;100453.81;5065754;28;20486;-52
2021/10/15 08:10:27;;;;;;;0.30;0.20;;;;;;;8.46;100.00;100463.19;5064434;28;20469;-52
2021/10/15 08:12:53;;;;;;;0.30;0.20;;;;;;;8.47;100.00;100459.63;5058854;28;20446;-53
2021/10/15 08:15:21;;;;;;;2.00;1.90;;;;;;;8.62;100.00;100463.78;5060311;28;20497;-52
2021/10/15 08:17:47;;;;;;;0.30;0.20;;;;;;;8.80;100.00;100446.69;5065275;28;20523;-52
2021/10/15 08:20:19;;;;;;;0.30;0.20;;;;;;;8.81;100.00;100457.28;5064304;28;20476;-52
2021/10/15 08:22:51;;;;;;;0.30;0.20;;;;;;;9.00;100.00;100460.44;5058458;28;20506;-52
2021/10/15 08:25:24;;;;;;;0.83;0.83;;;;;;;9.18;100.00;100462.75;5058649;28;20442;-52
2021/10/15 08:27:50;;;;;;;0.40;0.30;;;;;;;9.15;100.00;100460.13;5064038;28;20490;-52
2021/10/15 08:30:17;;;;;;;0.30;0.23;;;;;;;9.45;100.00;100460.41;5065508;28;20899;-52
2021/10/15 08:32:44;;;;;;;0.30;0.20;;;;;;;9.57;100.00;100460.13;5060313;28;20500;-53
2021/10/15 08:35:11;;;;;;;0.30;0.20;;;;;;;9.67;100.00;100467.00;5057912;28;20482;-53
2021/10/15 08:37:39;;;;;;;0.40;0.40;;;;;;;9.86;100.00;100466.56;5067301;28;20496;-53
2021/10/15 08:40:08;;;;;;;0.50;0.50;;;;;;;9.77;100.00;100455.28;5068977;28;20957;-53
2021/10/15 08:42:36;;;;;;;0.30;0.20;;;;;;;9.91;100.00;100454.09;5064711;28;20475;-53
2021/10/15 08:45:05;;;;;;;0.30;0.20;;;;;;;9.98;100.00;100447.72;5062024;28;20451;-53
2021/10/15 08:47:32;;;;;;;0.50;0.50;;;;;;;10.04;100.00;100455.53;5065703;28;20474;-53
2021/10/15 08:50:20;;;;;;;0.53;0.53;;;;;;;10.07;100.00;100452.81;5052032;28;20468;-53
2021/10/15 08:52:48;;;;;;;0.30;0.20;;;;;;;10.07;100.00;100443.06;5068727;28;20583;-52
2021/10/15 08:55:16;;;;;;;0.40;0.30;;;;;;;10.16;100.00;100446.41;5061302;28;20481;-53
2021/10/15 08:57:56;;;;;;;0.30;0.20;;;;;;;10.49;100.00;100447.38;5073277;28;20473;-53
2021/10/15 09:00:29;;;;;;;7.10;1.43;;;;;;;10.45;100.00;100449.25;5064726;28;20523;-53
2021/10/15 09:03:16;;;;;;;1.33;1.33;;;;;;;10.59;100.00;100454.22;5061745;28;20450;-53
2021/10/15 09:06:00;;;;;;;0.40;0.33;;;;;;;10.54;100.00;100448.13;5062363;28;20443;-52
2021/10/15 09:08:53;;;;;;;0.30;0.20;;;;;;;10.65;100.00;100452.25;5052276;28;20542;-52
2021/10/15 09:11:41;;;;;;;0.30;0.20;;;;;;;10.77;100.00;100450.19;5061663;28;20466;-53
2021/10/15 09:14:22;;;;;;;0.30;0.20;;;;;;;10.89;100.00;100447.19;5061402;28;20446;-53
2021/10/15 09:17:00;;;;;;;0.30;0.20;;;;;;;10.98;100.00;100442.50;5064431;28;20447;-53
2021/10/15 09:19:40;;;;;;;0.30;0.20;;;;;;;11.09;100.00;100439.53;5058742;28;20978;-53
2021/10/15 09:22:10;;;;;;;0.30;0.20;;;;;;;11.21;100.00;100444.50;5068032;28;20442;-53
2021/10/15 09:24:37;;;;;;;0.30;0.20;;;;;;;11.33;100.00;100448.59;5062613;28;20442;-53
2021/10/15 09:27:15;;;;;;;0.57;0.57;;;;;;;11.43;100.00;100451.88;5061438;28;20446;-54
2021/10/15 09:30:07;;;;;;;0.30;0.20;;;;;;;11.50;100.00;100453.41;5065620;28;20443;-53
2021/10/15 09:32:45;;;;;;;0.30;0.20;;;;;;;11.62;100.00;100453.06;5067906;28;20454;-53
2021/10/15 09:35:24;;;;;;;0.30;0.20;;;;;;;11.68;100.00;100458.22;5067979;28;20446;-53
2021/10/15 09:37:55;;;;;;;6.33;1.07;;;;;;;11.72;100.00;100458.97;5064116;28;20880;-53
2021/10/15 09:40:24;;;;;;;0.40;0.27;;;;;;;11.71;100.00;100457.25;5060982;28;20488;-53
2021/10/15 09:42:56;;;;;;;0.30;0.30;;;;;;;11.83;100.00;100454.22;5064235;28;20493;-53
2021/10/15 09:45:25;;;;;;;0.30;0.20;;;;;;;11.80;100.00;100451.66;5067834;28;20455;-53
2021/10/15 09:47:58;;;;;;;0.30;0.20;;;;;;;11.81;100.00;100459.63;5065547;28;20584;-53
2021/10/15 09:50:30;;;;;;;0.30;0.20;;;;;;;11.94;100.00;100454.78;5054802;28;20458;-53
2021/10/15 09:53:02;;;;;;;0.30;0.20;;;;;;;12.18;100.00;100449.56;5067832;28;20470;-53
2021/10/15 09:55:36;;;;;;;0.30;0.20;;;;;;;12.16;100.00;100452.28;5063291;28;20442;-53
2021/10/15 09:58:13;;;;;;;0.50;0.50;;;;;;;12.28;100.00;100448.34;5069433;28;20936;-53
2021/10/15 10:00:40;;;;;;;0.30;0.30;;;;;;;12.43;100.00;100454.03;5066013;28;21018;-53
2021/10/15 10:03:08;;;;;;;1.40;1.40;;;;;;;12.47;100.00;100454.78;5060732;28;20812;-53
2021/10/15 10:05:37;;;;;;;0.30;0.20;;;;;;;12.59;100.00;100437.50;5062050;28;20545;-53
2021/10/15 10:08:07;;;;;;;0.30;0.20;;;;;;;12.66;100.00;100439.06;5067079;28;21003;-53
2021/10/15 10:10:36;;;;;;;0.40;0.40;;;;;;;12.69;100.00;100439.81;5067250;28;20470;-53
2021/10/15 10:13:04;;;;;;;0.30;0.20;;;;;;;12.98;100.00;100451.25;5066837;28;20455;-53
2021/10/15 10:15:34;;;;;;;0.30;0.20;;;;;;;12.91;100.00;100441.75;5067355;28;20842;-53
2021/10/15 10:18:27;;;;;;;2.83;1.40;;;;;;;13.26;99.95;100448.47;5060510;28;20442;-54
2021/10/15 10:20:53;;;;;;;0.30;0.20;;;;;;;13.29;97.84;100441.25;5065200;28;20491;-55
2021/10/15 10:23:28;;;;;;;0.30;0.20;;;;;;;13.58;97.51;100439.28;5065358;28;20802;-53
2021/10/15 10:26:03;;;;;;;0.30;0.20;;;;;;;13.79;97.08;100434.88;5060269;28;20477;-53
2021/10/15 10:28:31;;;;;;;0.40;0.33;;;;;;;13.97;96.03;100444.81;5060220;28;20545;-53
2021/10/15 10:31:03;;;;;;;0.40;0.33;;;;;;;13.85;93.66;100431.97;5066025;28;20532;-53
2021/10/15 10:33:33;;;;;;;0.30;0.20;;;;;;;13.84;94.74;100436.47;5066804;28;20465;-53
2021/10/15 10:36:12;;;;;;;0.30;0.20;;;;;;;13.88;93.62;100430.06;5062503;28;20442;-53
2021/10/15 10:38:39;;;;;;;18.73;1.40;;;;;;;14.03;92.80;100422.34;5059828;28;20500;-54
2021/10/15 10:41:06;;;;;;;0.30;0.20;;;;;;;14.08;92.49;100420.34;5062085;28;20880;-53
2021/10/15 10:43:44;;;;;;;0.30;0.20;;;;;;;14.44;91.40;100418.84;5066690;28;20474;-53
2021/10/15 10:46:13;;;;;;;0.50;0.50;;;;;;;14.48;91.31;100414.25;5065796;28;20969;-53
2021/10/15 10:48:49;;;;;;;0.30;0.20;;;;;;;14.50;91.46;100412.38;5051969;28;20494;-53
2021/10/15 10:51:20;;;;;;;0.30;0.20;;;;;;;14.86;89.84;100412.59;5049342;28;20502;-53
2021/10/15 10:53:59;;;;;;;0.30;0.20;;;;;;;14.92;89.45;100406.06;5064324;28;20487;-54
2021/10/15 10:56:38;;;;;;;0.30;0.20;;;;;;;15.13;89.00;100406.94;5069634;28;20456;-53
2021/10/15 10:59:25;;;;;;;0.30;0.20;;;;;;;15.21;88.60;100402.06;5059827;28;20447;-53
2021/10/15 11:02:03;;;;;;;0.50;0.50;;;;;;;15.35;87.48;100391.59;5048750;28;20493;-53
2021/10/15 11:04:35;;;;;;;0.30;0.20;;;;;;;15.58;85.87;100393.19;5059330;28;20449;-53
2021/10/15 11:07:05;;;;;;;0.30;0.20;;;;;;;15.54;85.73;100399.66;5061728;28;20451;-54
2021/10/15 11:09:51;;;;;;;0.30;0.30;;;;;;;15.56;85.54;100393.28;5065894;28;20486;-53
2021/10/15 11:12:27;;;;;;;0.40;0.30;;;;;;;15.81;85.43;100382.28;5065973;28;20445;-53
2021/10/15 11:15:01;;;;;;;0.30;0.20;;;;;;;15.74;85.52;100386.19;5062413;28;20799;-54
2021/10/15 11:17:45;;;;;;;0.30;0.20;;;;;;;15.58;85.89;100385.16;5059036;28;20533;-53
2021/10/15 11:20:21;;;;;;;0.43;0.43;;;;;;;15.83;85.33;100379.53;5053058;28;20467;-53
2021/10/15 11:22:53;;;;;;;0.30;0.20;;;;;;;15.92;84.58;100379.97;5048813;28;20824;-53
2021/10/15 11:25:23;;;;;;;9.40;1.17;;;;;;;15.87;85.27;100368.56;5058913;28;20542;-55
2021/10/15 11:27:56;;;;;;;0.40;0.20;;;;;;;15.88;86.28;100367.63;5063751;28;20521;-54
2021/10/15 11:30:26;;;;;;;0.30;0.30;;;;;;;16.04;84.96;100366.91;5065909;28;20549;-54
2021/10/15 11:32:54;;;;;;;0.40;0.30;;;;;;;15.99;84.97;100367.09;5063535;28;20446;-53
2021/10/15 11:35:32;;;;;;;0.30;0.20;;;;;;;15.98;85.20;100368.91;5057881;28;20454;-54
2021/10/15 11:38:02;;;;;;;0.40;0.20;;;;;;;16.13;84.72;100361.91;5060326;28;20474;-53
2021/10/15 11:40:35;;;;;;;0.30;0.20;;;;;;;16.15;84.41;100353.78;5065880;28;20542;-53
2021/10/15 11:43:27;;;;;;;0.30;0.20;;;;;;;16.33;84.78;100352.00;5066032;28;20495;-55
2021/10/15 11:45:56;;;;;;;0.40;0.30;;;;;;;16.47;84.25;100344.97;5063118;28;20458;-54
2021/10/15 11:48:40;;;;;;;0.30;0.20;;;;;;;16.70;83.99;100333.06;5056072;28;20515;-54